sensor_id;sensor_type;location;lat;lon;timestamp;temperature;humidity
578;DHT22;275;48.492;9.214;2023-04-29T00:00:50;17.10;50.20
578;DHT22;275;48.492;9.214;2023-04-29T00:03:17;17.10;50.40
578;DHT22;275;48.492;9.214;2023-04-29T00:05:44;17.20;50.10
578;DHT22;275;48.492;9.214;2023-04-29T00:08:11;16.80;51.00
578;DHT22;275;48.492;9.214;2023-04-29T00:10:39;16.80;51.10
578;DHT22;275;48.492;9.214;2023-04-29T00:13:06;16.90;50.70
578;DHT22;275;48.492;9.214;2023-04-29T00:15:33;16.90;50.40
578;DHT22;275;48.492;9.214;2023-04-29T00:18:01;16.90;50.20
578;DHT22;275;48.492;9.214;2023-04-29T00:20:28;16.90;50.30
578;DHT22;275;48.492;9.214;2023-04-29T00:22:55;16.90;50.30
578;DHT22;275;48.492;9.214;2023-04-29T00:25:22;16.80;50.40
578;DHT22;275;48.492;9.214;2023-04-29T00:27:50;16.80;50.30
578;DHT22;275;48.492;9.214;2023-04-29T00:30:17;16.90;50.00
578;DHT22;275;48.492;9.214;2023-04-29T00:32:44;16.70;50.60
578;DHT22;275;48.492;9.214;2023-04-29T00:35:11;16.80;50.70
578;DHT22;275;48.492;9.214;2023-04-29T00:37:38;16.40;51.50
578;DHT22;275;48.492;9.214;2023-04-29T00:40:06;16.40;51.60
578;DHT22;275;48.492;9.214;2023-04-29T00:42:33;16.40;51.40
578;DHT22;275;48.492;9.214;2023-04-29T00:45:01;16.40;51.50
578;DHT22;275;48.492;9.214;2023-04-29T00:47:28;16.60;51.00
578;DHT22;275;48.492;9.214;2023-04-29T00:49:55;16.20;52.20
578;DHT22;275;48.492;9.214;2023-04-29T00:52:22;16.20;51.90
578;DHT22;275;48.492;9.214;2023-04-29T00:54:50;16.10;52.50
578;DHT22;275;48.492;9.214;2023-04-29T00:57:18;16.10;52.40
578;DHT22;275;48.492;9.214;2023-04-29T00:59:45;16.30;51.70
578;DHT22;275;48.492;9.214;2023-04-29T01:02:15;16.50;51.00
578;DHT22;275;48.492;9.214;2023-04-29T01:04:42;16.50;50.80
578;DHT22;275;48.492;9.214;2023-04-29T01:07:14;16.30;51.60
578;DHT22;275;48.492;9.214;2023-04-29T01:09:49;16.30;52.00
578;DHT22;275;48.492;9.214;2023-04-29T01:12:20;15.80;53.20
578;DHT22;275;48.492;9.214;2023-04-29T01:14:53;15.40;54.40
578;DHT22;275;48.492;9.214;2023-04-29T01:17:34;15.40;54.50
578;DHT22;275;48.492;9.214;2023-04-29T01:20:03;15.60;54.10
578;DHT22;275;48.492;9.214;2023-04-29T01:22:31;15.80;53.30
578;DHT22;275;48.492;9.214;2023-04-29T01:24:59;16.20;51.90
578;DHT22;275;48.492;9.214;2023-04-29T01:27:30;16.40;50.80
578;DHT22;275;48.492;9.214;2023-04-29T01:30:01;16.30;51.50
578;DHT22;275;48.492;9.214;2023-04-29T01:32:37;16.10;52.10
578;DHT22;275;48.492;9.214;2023-04-29T01:35:19;15.80;53.00
578;DHT22;275;48.492;9.214;2023-04-29T01:37:53;15.80;53.00
578;DHT22;275;48.492;9.214;2023-04-29T01:40:28;15.90;52.50
578;DHT22;275;48.492;9.214;2023-04-29T01:43:00;16.00;52.40
578;DHT22;275;48.492;9.214;2023-04-29T01:45:28;16.00;52.30
578;DHT22;275;48.492;9.214;2023-04-29T01:47:57;15.80;52.90
578;DHT22;275;48.492;9.214;2023-04-29T01:50:24;15.80;52.90
578;DHT22;275;48.492;9.214;2023-04-29T01:52:51;15.70;53.30
578;DHT22;275;48.492;9.214;2023-04-29T01:55:18;15.80;52.90
578;DHT22;275;48.492;9.214;2023-04-29T01:57:47;15.80;53.00
578;DHT22;275;48.492;9.214;2023-04-29T02:00:14;15.90;52.60
578;DHT22;275;48.492;9.214;2023-04-29T02:02:41;15.90;52.70
578;DHT22;275;48.492;9.214;2023-04-29T02:05:08;15.80;52.30
578;DHT22;275;48.492;9.214;2023-04-29T02:07:35;15.90;52.70
578;DHT22;275;48.492;9.214;2023-04-29T02:10:02;15.70;53.00
578;DHT22;275;48.492;9.214;2023-04-29T02:12:29;15.80;52.70
578;DHT22;275;48.492;9.214;2023-04-29T02:14:57;16.00;52.10
578;DHT22;275;48.492;9.214;2023-04-29T02:17:24;16.00;51.90
578;DHT22;275;48.492;9.214;2023-04-29T02:19:51;15.90;52.00
578;DHT22;275;48.492;9.214;2023-04-29T02:22:19;15.90;52.00
578;DHT22;275;48.492;9.214;2023-04-29T02:24:46;16.00;51.90
578;DHT22;275;48.492;9.214;2023-04-29T02:27:13;15.80;52.30
578;DHT22;275;48.492;9.214;2023-04-29T02:29:40;15.90;52.00
578;DHT22;275;48.492;9.214;2023-04-29T02:32:08;16.00;52.60
578;DHT22;275;48.492;9.214;2023-04-29T02:34:35;16.10;51.10
578;DHT22;275;48.492;9.214;2023-04-29T02:37:02;16.20;50.70
578;DHT22;275;48.492;9.214;2023-04-29T02:39:29;16.10;50.70
578;DHT22;275;48.492;9.214;2023-04-29T02:41:56;15.90;51.30
578;DHT22;275;48.492;9.214;2023-04-29T02:44:23;15.50;52.40
578;DHT22;275;48.492;9.214;2023-04-29T02:46:50;15.70;51.90
578;DHT22;275;48.492;9.214;2023-04-29T02:49:18;15.80;51.50
578;DHT22;275;48.492;9.214;2023-04-29T02:51:45;16.00;50.70
578;DHT22;275;48.492;9.214;2023-04-29T02:54:14;15.90;51.30
578;DHT22;275;48.492;9.214;2023-04-29T02:56:41;16.00;51.10
578;DHT22;275;48.492;9.214;2023-04-29T02:59:08;15.90;51.20
578;DHT22;275;48.492;9.214;2023-04-29T03:01:35;15.90;51.50
578;DHT22;275;48.492;9.214;2023-04-29T03:04:03;15.90;51.00
578;DHT22;275;48.492;9.214;2023-04-29T03:06:32;15.70;51.80
578;DHT22;275;48.492;9.214;2023-04-29T03:08:58;15.70;51.80
578;DHT22;275;48.492;9.214;2023-04-29T03:11:25;15.40;52.90
578;DHT22;275;48.492;9.214;2023-04-29T03:13:52;15.30;53.10
578;DHT22;275;48.492;9.214;2023-04-29T03:16:19;15.30;53.20
578;DHT22;275;48.492;9.214;2023-04-29T03:18:47;15.30;52.90
578;DHT22;275;48.492;9.214;2023-04-29T03:21:14;15.20;53.20
578;DHT22;275;48.492;9.214;2023-04-29T03:23:43;14.90;54.20
578;DHT22;275;48.492;9.214;2023-04-29T03:26:10;15.00;53.70
578;DHT22;275;48.492;9.214;2023-04-29T03:28:37;15.00;53.60
578;DHT22;275;48.492;9.214;2023-04-29T03:31:04;14.90;53.50
578;DHT22;275;48.492;9.214;2023-04-29T03:33:30;14.70;54.00
578;DHT22;275;48.492;9.214;2023-04-29T03:35:57;15.00;52.90
578;DHT22;275;48.492;9.214;2023-04-29T03:38:24;15.20;52.40
578;DHT22;275;48.492;9.214;2023-04-29T03:40:52;15.50;51.60
578;DHT22;275;48.492;9.214;2023-04-29T03:43:19;15.60;51.20
578;DHT22;275;48.492;9.214;2023-04-29T03:45:46;15.10;52.90
578;DHT22;275;48.492;9.214;2023-04-29T03:48:13;15.30;52.20
578;DHT22;275;48.492;9.214;2023-04-29T03:50:40;15.40;51.70
578;DHT22;275;48.492;9.214;2023-04-29T03:53:07;15.50;51.10
578;DHT22;275;48.492;9.214;2023-04-29T03:55:33;15.20;52.40
578;DHT22;275;48.492;9.214;2023-04-29T03:58:02;15.30;52.20
578;DHT22;275;48.492;9.214;2023-04-29T04:00:29;15.60;51.50
578;DHT22;275;48.492;9.214;2023-04-29T04:02:56;15.50;51.60
578;DHT22;275;48.492;9.214;2023-04-29T04:05:23;15.20;52.60
578;DHT22;275;48.492;9.214;2023-04-29T04:07:50;15.20;52.90
578;DHT22;275;48.492;9.214;2023-04-29T04:10:17;15.20;52.50
578;DHT22;275;48.492;9.214;2023-04-29T04:12:44;15.40;52.00
578;DHT22;275;48.492;9.214;2023-04-29T04:15:13;15.60;51.10
578;DHT22;275;48.492;9.214;2023-04-29T04:17:39;15.10;52.30
578;DHT22;275;48.492;9.214;2023-04-29T04:20:07;14.70;54.00
578;DHT22;275;48.492;9.214;2023-04-29T04:22:34;14.50;54.40
578;DHT22;275;48.492;9.214;2023-04-29T04:25:01;14.60;54.30
578;DHT22;275;48.492;9.214;2023-04-29T04:27:29;14.90;53.20
578;DHT22;275;48.492;9.214;2023-04-29T04:29:56;15.00;53.00
578;DHT22;275;48.492;9.214;2023-04-29T04:32:24;14.90;53.20
578;DHT22;275;48.492;9.214;2023-04-29T04:34:51;15.10;52.50
578;DHT22;275;48.492;9.214;2023-04-29T04:37:18;15.40;51.20
578;DHT22;275;48.492;9.214;2023-04-29T04:39:45;15.50;50.90
578;DHT22;275;48.492;9.214;2023-04-29T04:42:12;15.70;50.60
578;DHT22;275;48.492;9.214;2023-04-29T04:44:39;15.70;50.40
578;DHT22;275;48.492;9.214;2023-04-29T04:47:05;15.90;50.00
578;DHT22;275;48.492;9.214;2023-04-29T04:49:33;15.70;50.50
578;DHT22;275;48.492;9.214;2023-04-29T04:52:00;15.80;50.40
578;DHT22;275;48.492;9.214;2023-04-29T04:54:27;16.10;50.20
578;DHT22;275;48.492;9.214;2023-04-29T04:56:54;16.10;49.90
578;DHT22;275;48.492;9.214;2023-04-29T04:59:21;16.40;49.70
578;DHT22;275;48.492;9.214;2023-04-29T05:01:48;16.20;49.60
578;DHT22;275;48.492;9.214;2023-04-29T05:04:15;16.10;49.30
578;DHT22;275;48.492;9.214;2023-04-29T05:06:43;15.80;49.60
578;DHT22;275;48.492;9.214;2023-04-29T05:09:11;15.00;52.20
578;DHT22;275;48.492;9.214;2023-04-29T05:11:38;14.50;54.20
578;DHT22;275;48.492;9.214;2023-04-29T05:14:06;14.70;53.80
578;DHT22;275;48.492;9.214;2023-04-29T05:16:33;15.10;52.10
578;DHT22;275;48.492;9.214;2023-04-29T05:18:59;16.00;50.80
578;DHT22;275;48.492;9.214;2023-04-29T05:21:26;16.50;49.20
578;DHT22;275;48.492;9.214;2023-04-29T05:23:54;17.30;47.70
578;DHT22;275;48.492;9.214;2023-04-29T05:26:22;17.80;46.20
578;DHT22;275;48.492;9.214;2023-04-29T05:28:48;18.10;45.40
578;DHT22;275;48.492;9.214;2023-04-29T05:31:15;17.90;45.30
578;DHT22;275;48.492;9.214;2023-04-29T05:33:42;17.80;45.30
578;DHT22;275;48.492;9.214;2023-04-29T05:36:09;17.80;45.00
578;DHT22;275;48.492;9.214;2023-04-29T05:38:36;17.80;44.90
578;DHT22;275;48.492;9.214;2023-04-29T05:41:04;17.90;45.90
578;DHT22;275;48.492;9.214;2023-04-29T05:43:31;18.00;45.50
578;DHT22;275;48.492;9.214;2023-04-29T05:45:58;17.70;45.80
578;DHT22;275;48.492;9.214;2023-04-29T05:48:24;17.60;45.50
578;DHT22;275;48.492;9.214;2023-04-29T05:50:51;17.70;44.60
578;DHT22;275;48.492;9.214;2023-04-29T05:53:18;17.30;46.00
578;DHT22;275;48.492;9.214;2023-04-29T05:56:05;17.20;46.50
578;DHT22;275;48.492;9.214;2023-04-29T05:58:32;16.40;49.30
578;DHT22;275;48.492;9.214;2023-04-29T06:00:59;16.50;49.40
578;DHT22;275;48.492;9.214;2023-04-29T06:03:27;16.40;50.30
578;DHT22;275;48.492;9.214;2023-04-29T06:05:54;16.40;50.10
578;DHT22;275;48.492;9.214;2023-04-29T06:08:21;16.40;50.60
578;DHT22;275;48.492;9.214;2023-04-29T06:10:48;16.30;51.30
578;DHT22;275;48.492;9.214;2023-04-29T06:13:17;16.30;51.30
578;DHT22;275;48.492;9.214;2023-04-29T06:15:44;16.60;50.80
578;DHT22;275;48.492;9.214;2023-04-29T06:18:11;16.70;50.40
578;DHT22;275;48.492;9.214;2023-04-29T06:20:38;16.90;49.70
578;DHT22;275;48.492;9.214;2023-04-29T06:23:05;17.10;49.50
578;DHT22;275;48.492;9.214;2023-04-29T06:25:32;17.40;48.40
578;DHT22;275;48.492;9.214;2023-04-29T06:27:58;17.20;48.20
578;DHT22;275;48.492;9.214;2023-04-29T06:30:27;17.50;46.60
578;DHT22;275;48.492;9.214;2023-04-29T06:32:53;17.70;45.80
578;DHT22;275;48.492;9.214;2023-04-29T06:35:20;17.30;46.00
578;DHT22;275;48.492;9.214;2023-04-29T06:37:47;17.50;44.40
578;DHT22;275;48.492;9.214;2023-04-29T06:40:14;17.90;44.50
578;DHT22;275;48.492;9.214;2023-04-29T06:42:41;18.30;43.60
578;DHT22;275;48.492;9.214;2023-04-29T06:45:09;18.40;41.60
578;DHT22;275;48.492;9.214;2023-04-29T06:47:37;18.60;41.30
578;DHT22;275;48.492;9.214;2023-04-29T06:50:05;18.30;40.60
578;DHT22;275;48.492;9.214;2023-04-29T06:52:33;17.80;41.80
578;DHT22;275;48.492;9.214;2023-04-29T06:55:00;18.20;41.90
578;DHT22;275;48.492;9.214;2023-04-29T06:57:26;18.90;39.80
578;DHT22;275;48.492;9.214;2023-04-29T06:59:53;18.90;39.60
578;DHT22;275;48.492;9.214;2023-04-29T07:02:20;18.70;40.70
578;DHT22;275;48.492;9.214;2023-04-29T07:04:48;18.50;39.40
578;DHT22;275;48.492;9.214;2023-04-29T07:07:15;18.60;40.20
578;DHT22;275;48.492;9.214;2023-04-29T07:09:42;18.70;39.90
578;DHT22;275;48.492;9.214;2023-04-29T07:12:09;18.60;40.90
578;DHT22;275;48.492;9.214;2023-04-29T07:14:35;19.50;39.20
578;DHT22;275;48.492;9.214;2023-04-29T07:17:02;20.50;36.10
578;DHT22;275;48.492;9.214;2023-04-29T07:19:30;20.20;35.50
578;DHT22;275;48.492;9.214;2023-04-29T07:21:58;20.50;36.00
578;DHT22;275;48.492;9.214;2023-04-29T07:24:25;20.40;35.20
578;DHT22;275;48.492;9.214;2023-04-29T07:26:52;20.30;35.10
578;DHT22;275;48.492;9.214;2023-04-29T07:29:18;19.60;35.40
578;DHT22;275;48.492;9.214;2023-04-29T07:31:45;19.80;33.90
578;DHT22;275;48.492;9.214;2023-04-29T07:34:12;19.90;33.70
578;DHT22;275;48.492;9.214;2023-04-29T07:36:39;21.90;31.50
578;DHT22;275;48.492;9.214;2023-04-29T07:39:07;23.40;29.70
578;DHT22;275;48.492;9.214;2023-04-29T07:41:34;22.10;30.10
578;DHT22;275;48.492;9.214;2023-04-29T07:44:01;22.50;30.70
578;DHT22;275;48.492;9.214;2023-04-29T07:46:28;23.40;28.60
578;DHT22;275;48.492;9.214;2023-04-29T07:48:54;22.20;30.40
578;DHT22;275;48.492;9.214;2023-04-29T07:51:22;24.40;28.60
578;DHT22;275;48.492;9.214;2023-04-29T07:53:49;26.70;24.80
578;DHT22;275;48.492;9.214;2023-04-29T07:56:17;27.00;24.50
578;DHT22;275;48.492;9.214;2023-04-29T07:58:44;28.10;23.40
578;DHT22;275;48.492;9.214;2023-04-29T08:01:11;30.20;20.60
578;DHT22;275;48.492;9.214;2023-04-29T08:03:38;26.60;23.20
578;DHT22;275;48.492;9.214;2023-04-29T08:06:05;27.00;23.90
578;DHT22;275;48.492;9.214;2023-04-29T08:08:32;24.50;26.60
578;DHT22;275;48.492;9.214;2023-04-29T08:10:59;22.10;29.30
578;DHT22;275;48.492;9.214;2023-04-29T08:13:27;21.00;31.90
578;DHT22;275;48.492;9.214;2023-04-29T08:15:54;22.70;30.10
578;DHT22;275;48.492;9.214;2023-04-29T08:18:21;26.20;25.50
578;DHT22;275;48.492;9.214;2023-04-29T08:20:48;29.30;21.40
578;DHT22;275;48.492;9.214;2023-04-29T08:23:15;29.80;20.00
578;DHT22;275;48.492;9.214;2023-04-29T08:25:42;27.70;21.10
578;DHT22;275;48.492;9.214;2023-04-29T08:28:09;24.30;24.60
578;DHT22;275;48.492;9.214;2023-04-29T08:30:39;24.80;25.10
578;DHT22;275;48.492;9.214;2023-04-29T08:33:06;25.00;24.50
578;DHT22;275;48.492;9.214;2023-04-29T08:35:33;27.10;22.60
578;DHT22;275;48.492;9.214;2023-04-29T08:38:02;27.00;22.20
578;DHT22;275;48.492;9.214;2023-04-29T08:40:30;27.10;21.60
578;DHT22;275;48.492;9.214;2023-04-29T08:42:57;25.90;23.10
578;DHT22;275;48.492;9.214;2023-04-29T08:45:26;28.50;20.80
578;DHT22;275;48.492;9.214;2023-04-29T08:47:55;30.30;18.50
578;DHT22;275;48.492;9.214;2023-04-29T08:50:23;31.40;16.40
578;DHT22;275;48.492;9.214;2023-04-29T08:52:50;31.10;17.90
578;DHT22;275;48.492;9.214;2023-04-29T08:55:17;28.70;20.50
578;DHT22;275;48.492;9.214;2023-04-29T08:57:45;26.70;22.40
578;DHT22;275;48.492;9.214;2023-04-29T09:00:15;25.90;23.40
578;DHT22;275;48.492;9.214;2023-04-29T09:02:46;23.80;25.10
578;DHT22;275;48.492;9.214;2023-04-29T09:05:16;22.00;26.20
578;DHT22;275;48.492;9.214;2023-04-29T09:07:43;22.50;26.20
578;DHT22;275;48.492;9.214;2023-04-29T09:10:11;23.70;24.30
578;DHT22;275;48.492;9.214;2023-04-29T09:12:39;24.50;23.50
578;DHT22;275;48.492;9.214;2023-04-29T09:15:07;23.60;24.60
578;DHT22;275;48.492;9.214;2023-04-29T09:17:41;23.10;25.20
578;DHT22;275;48.492;9.214;2023-04-29T09:20:29;23.10;24.90
578;DHT22;275;48.492;9.214;2023-04-29T09:22:58;24.40;23.90
578;DHT22;275;48.492;9.214;2023-04-29T09:25:25;25.70;21.90
578;DHT22;275;48.492;9.214;2023-04-29T09:27:53;27.20;20.40
578;DHT22;275;48.492;9.214;2023-04-29T09:30:20;27.50;19.60
578;DHT22;275;48.492;9.214;2023-04-29T09:33:03;27.90;19.50
578;DHT22;275;48.492;9.214;2023-04-29T09:35:32;30.30;16.60
578;DHT22;275;48.492;9.214;2023-04-29T09:38:10;30.40;15.70
578;DHT22;275;48.492;9.214;2023-04-29T09:40:38;30.80;15.40
578;DHT22;275;48.492;9.214;2023-04-29T09:43:11;30.40;15.10
578;DHT22;275;48.492;9.214;2023-04-29T09:45:41;28.80;17.40
578;DHT22;275;48.492;9.214;2023-04-29T09:48:09;26.70;18.60
578;DHT22;275;48.492;9.214;2023-04-29T09:50:38;25.90;20.10
578;DHT22;275;48.492;9.214;2023-04-29T09:53:06;28.20;18.60
578;DHT22;275;48.492;9.214;2023-04-29T09:55:33;30.20;16.60
578;DHT22;275;48.492;9.214;2023-04-29T09:58:01;31.40;14.80
578;DHT22;275;48.492;9.214;2023-04-29T10:00:30;30.20;15.70
578;DHT22;275;48.492;9.214;2023-04-29T10:02:58;28.30;17.50
578;DHT22;275;48.492;9.214;2023-04-29T10:05:27;26.70;19.30
578;DHT22;275;48.492;9.214;2023-04-29T10:07:57;24.70;21.60
578;DHT22;275;48.492;9.214;2023-04-29T10:10:24;23.40;23.00
578;DHT22;275;48.492;9.214;2023-04-29T10:12:54;23.60;22.90
578;DHT22;275;48.492;9.214;2023-04-29T10:15:27;24.00;22.80
578;DHT22;275;48.492;9.214;2023-04-29T10:17:58;25.40;21.00
578;DHT22;275;48.492;9.214;2023-04-29T10:20:28;24.70;21.30
578;DHT22;275;48.492;9.214;2023-04-29T10:22:57;23.80;22.50
578;DHT22;275;48.492;9.214;2023-04-29T10:25:25;23.40;22.50
578;DHT22;275;48.492;9.214;2023-04-29T10:27:54;22.50;23.70
578;DHT22;275;48.492;9.214;2023-04-29T10:30:21;22.90;23.60
578;DHT22;275;48.492;9.214;2023-04-29T10:32:49;23.70;22.50
578;DHT22;275;48.492;9.214;2023-04-29T10:35:17;24.70;21.00
578;DHT22;275;48.492;9.214;2023-04-29T10:37:47;24.10;21.50
578;DHT22;275;48.492;9.214;2023-04-29T10:40:17;24.60;20.70
578;DHT22;275;48.492;9.214;2023-04-29T10:42:47;25.20;20.60
578;DHT22;275;48.492;9.214;2023-04-29T10:45:19;27.80;16.90
578;DHT22;275;48.492;9.214;2023-04-29T10:48:09;28.90;15.90
578;DHT22;275;48.492;9.214;2023-04-29T10:50:40;31.50;14.40
578;DHT22;275;48.492;9.214;2023-04-29T10:53:24;31.40;14.40
578;DHT22;275;48.492;9.214;2023-04-29T10:55:56;27.30;18.10
578;DHT22;275;48.492;9.214;2023-04-29T10:58:34;26.60;20.20
578;DHT22;275;48.492;9.214;2023-04-29T11:01:01;25.10;21.60
578;DHT22;275;48.492;9.214;2023-04-29T11:03:48;23.90;22.90
578;DHT22;275;48.492;9.214;2023-04-29T11:06:15;24.10;22.90
578;DHT22;275;48.492;9.214;2023-04-29T11:08:43;22.30;24.90
578;DHT22;275;48.492;9.214;2023-04-29T11:11:12;22.10;25.70
578;DHT22;275;48.492;9.214;2023-04-29T11:13:39;22.30;25.70
578;DHT22;275;48.492;9.214;2023-04-29T11:16:07;23.50;25.70
578;DHT22;275;48.492;9.214;2023-04-29T11:18:35;23.20;26.30
578;DHT22;275;48.492;9.214;2023-04-29T11:21:12;23.40;26.20
578;DHT22;275;48.492;9.214;2023-04-29T11:23:39;26.10;23.00
578;DHT22;275;48.492;9.214;2023-04-29T11:26:07;27.20;21.10
578;DHT22;275;48.492;9.214;2023-04-29T11:28:35;26.30;20.80
578;DHT22;275;48.492;9.214;2023-04-29T11:31:03;24.90;22.70
578;DHT22;275;48.492;9.214;2023-04-29T11:33:31;24.00;23.80
578;DHT22;275;48.492;9.214;2023-04-29T11:35:58;22.60;25.40
578;DHT22;275;48.492;9.214;2023-04-29T11:38:26;21.50;27.10
578;DHT22;275;48.492;9.214;2023-04-29T11:40:54;21.80;26.40
578;DHT22;275;48.492;9.214;2023-04-29T11:43:21;22.10;26.30
578;DHT22;275;48.492;9.214;2023-04-29T11:45:50;22.80;25.60
578;DHT22;275;48.492;9.214;2023-04-29T11:48:17;23.10;25.20
578;DHT22;275;48.492;9.214;2023-04-29T11:50:46;23.80;24.10
578;DHT22;275;48.492;9.214;2023-04-29T11:53:14;23.50;24.60
578;DHT22;275;48.492;9.214;2023-04-29T11:55:41;23.00;25.20
578;DHT22;275;48.492;9.214;2023-04-29T11:58:08;24.00;24.10
578;DHT22;275;48.492;9.214;2023-04-29T12:00:35;24.80;22.30
578;DHT22;275;48.492;9.214;2023-04-29T12:03:12;25.50;21.80
578;DHT22;275;48.492;9.214;2023-04-29T12:05:45;25.80;20.70
578;DHT22;275;48.492;9.214;2023-04-29T12:08:12;25.10;21.70
578;DHT22;275;48.492;9.214;2023-04-29T12:10:39;25.10;21.60
578;DHT22;275;48.492;9.214;2023-04-29T12:13:07;26.10;20.90
578;DHT22;275;48.492;9.214;2023-04-29T12:15:33;28.80;17.80
578;DHT22;275;48.492;9.214;2023-04-29T12:18:00;26.70;20.10
578;DHT22;275;48.492;9.214;2023-04-29T12:20:29;25.80;20.50
578;DHT22;275;48.492;9.214;2023-04-29T12:22:56;24.90;21.80
578;DHT22;275;48.492;9.214;2023-04-29T12:25:35;23.60;23.50
578;DHT22;275;48.492;9.214;2023-04-29T12:28:03;23.00;24.70
578;DHT22;275;48.492;9.214;2023-04-29T12:30:33;22.50;25.80
578;DHT22;275;48.492;9.214;2023-04-29T12:33:01;22.10;26.70
578;DHT22;275;48.492;9.214;2023-04-29T12:35:29;22.10;26.60
578;DHT22;275;48.492;9.214;2023-04-29T12:37:57;21.30;27.60
578;DHT22;275;48.492;9.214;2023-04-29T12:40:25;21.60;27.80
578;DHT22;275;48.492;9.214;2023-04-29T12:42:52;21.10;27.70
578;DHT22;275;48.492;9.214;2023-04-29T12:45:29;21.00;27.90
578;DHT22;275;48.492;9.214;2023-04-29T12:47:57;20.90;28.30
578;DHT22;275;48.492;9.214;2023-04-29T12:50:30;20.90;28.10
578;DHT22;275;48.492;9.214;2023-04-29T12:52:57;20.70;28.60
578;DHT22;275;48.492;9.214;2023-04-29T12:55:24;20.80;28.50
578;DHT22;275;48.492;9.214;2023-04-29T12:57:51;21.70;27.30
578;DHT22;275;48.492;9.214;2023-04-29T13:00:19;21.60;27.10
578;DHT22;275;48.492;9.214;2023-04-29T13:02:46;21.80;27.00
578;DHT22;275;48.492;9.214;2023-04-29T13:05:13;22.00;26.30
578;DHT22;275;48.492;9.214;2023-04-29T13:07:41;21.20;27.40
578;DHT22;275;48.492;9.214;2023-04-29T13:10:09;20.40;28.70
578;DHT22;275;48.492;9.214;2023-04-29T13:12:37;19.90;29.80
578;DHT22;275;48.492;9.214;2023-04-29T13:15:05;20.60;28.90
578;DHT22;275;48.492;9.214;2023-04-29T13:17:32;20.70;28.30
578;DHT22;275;48.492;9.214;2023-04-29T13:19:59;20.50;27.80
578;DHT22;275;48.492;9.214;2023-04-29T13:22:26;19.60;29.10
578;DHT22;275;48.492;9.214;2023-04-29T13:24:54;19.70;29.10
578;DHT22;275;48.492;9.214;2023-04-29T13:27:21;20.00;28.10
578;DHT22;275;48.492;9.214;2023-04-29T13:29:48;19.90;28.90
578;DHT22;275;48.492;9.214;2023-04-29T13:32:15;19.60;28.50
578;DHT22;275;48.492;9.214;2023-04-29T13:34:42;19.60;28.50
578;DHT22;275;48.492;9.214;2023-04-29T13:37:09;19.20;30.40
578;DHT22;275;48.492;9.214;2023-04-29T13:39:36;19.50;30.50
578;DHT22;275;48.492;9.214;2023-04-29T13:42:05;19.40;31.10
578;DHT22;275;48.492;9.214;2023-04-29T13:44:32;19.30;31.60
578;DHT22;275;48.492;9.214;2023-04-29T13:46:59;18.70;32.60
578;DHT22;275;48.492;9.214;2023-04-29T13:49:27;18.50;33.10
578;DHT22;275;48.492;9.214;2023-04-29T13:51:53;18.40;34.40
578;DHT22;275;48.492;9.214;2023-04-29T13:54:20;18.80;33.90
578;DHT22;275;48.492;9.214;2023-04-29T13:56:48;19.00;32.80
578;DHT22;275;48.492;9.214;2023-04-29T13:59:16;18.30;34.10
578;DHT22;275;48.492;9.214;2023-04-29T14:01:43;18.20;34.90
578;DHT22;275;48.492;9.214;2023-04-29T14:04:10;18.80;33.60
578;DHT22;275;48.492;9.214;2023-04-29T14:06:37;18.60;33.50
578;DHT22;275;48.492;9.214;2023-04-29T14:09:04;18.60;33.20
578;DHT22;275;48.492;9.214;2023-04-29T14:11:31;18.30;34.00
578;DHT22;275;48.492;9.214;2023-04-29T14:14:00;18.40;34.00
578;DHT22;275;48.492;9.214;2023-04-29T14:16:29;18.40;34.00
578;DHT22;275;48.492;9.214;2023-04-29T14:18:56;18.70;33.20
578;DHT22;275;48.492;9.214;2023-04-29T14:21:23;18.70;33.00
578;DHT22;275;48.492;9.214;2023-04-29T14:23:50;18.20;34.50
578;DHT22;275;48.492;9.214;2023-04-29T14:26:17;18.10;34.50
578;DHT22;275;48.492;9.214;2023-04-29T14:28:44;18.00;34.60
578;DHT22;275;48.492;9.214;2023-04-29T14:31:11;18.30;33.80
578;DHT22;275;48.492;9.214;2023-04-29T14:33:40;18.30;33.50
578;DHT22;275;48.492;9.214;2023-04-29T14:36:08;18.40;33.40
578;DHT22;275;48.492;9.214;2023-04-29T14:38:35;18.40;33.00
578;DHT22;275;48.492;9.214;2023-04-29T14:41:02;17.80;34.70
578;DHT22;275;48.492;9.214;2023-04-29T14:43:29;17.60;34.80
578;DHT22;275;48.492;9.214;2023-04-29T14:45:56;17.70;34.80
578;DHT22;275;48.492;9.214;2023-04-29T14:48:23;17.70;34.80
578;DHT22;275;48.492;9.214;2023-04-29T14:50:51;17.60;35.10
578;DHT22;275;48.492;9.214;2023-04-29T14:53:18;17.70;34.70
578;DHT22;275;48.492;9.214;2023-04-29T14:55:45;17.60;34.80
578;DHT22;275;48.492;9.214;2023-04-29T14:58:13;17.30;35.50
578;DHT22;275;48.492;9.214;2023-04-29T15:00:41;16.90;36.40
578;DHT22;275;48.492;9.214;2023-04-29T15:03:08;17.10;36.40
578;DHT22;275;48.492;9.214;2023-04-29T15:05:35;17.60;34.90
578;DHT22;275;48.492;9.214;2023-04-29T15:08:03;17.90;34.20
578;DHT22;275;48.492;9.214;2023-04-29T15:10:30;17.80;34.50
578;DHT22;275;48.492;9.214;2023-04-29T15:12:58;18.00;34.20
578;DHT22;275;48.492;9.214;2023-04-29T15:15:25;17.90;34.60
578;DHT22;275;48.492;9.214;2023-04-29T15:17:53;17.80;34.20
578;DHT22;275;48.492;9.214;2023-04-29T15:20:20;17.30;35.60
578;DHT22;275;48.492;9.214;2023-04-29T15:22:47;17.20;35.30
578;DHT22;275;48.492;9.214;2023-04-29T15:25:15;17.00;36.40
578;DHT22;275;48.492;9.214;2023-04-29T15:27:42;16.80;37.60
578;DHT22;275;48.492;9.214;2023-04-29T15:30:10;17.00;36.60
578;DHT22;275;48.492;9.214;2023-04-29T15:32:37;17.10;35.90
578;DHT22;275;48.492;9.214;2023-04-29T15:35:04;17.40;35.50
578;DHT22;275;48.492;9.214;2023-04-29T15:37:31;17.30;35.10
578;DHT22;275;48.492;9.214;2023-04-29T15:39:59;17.50;34.70
578;DHT22;275;48.492;9.214;2023-04-29T15:42:27;17.90;34.00
578;DHT22;275;48.492;9.214;2023-04-29T15:44:54;17.60;34.30
578;DHT22;275;48.492;9.214;2023-04-29T15:47:21;17.10;35.30
578;DHT22;275;48.492;9.214;2023-04-29T15:49:48;16.70;36.40
578;DHT22;275;48.492;9.214;2023-04-29T15:52:15;16.70;36.90
578;DHT22;275;48.492;9.214;2023-04-29T15:54:42;16.80;36.70
578;DHT22;275;48.492;9.214;2023-04-29T15:57:08;17.10;36.20
578;DHT22;275;48.492;9.214;2023-04-29T15:59:37;16.90;36.90
578;DHT22;275;48.492;9.214;2023-04-29T16:02:03;16.70;37.30
578;DHT22;275;48.492;9.214;2023-04-29T16:04:35;16.20;38.80
578;DHT22;275;48.492;9.214;2023-04-29T16:07:01;16.70;37.60
578;DHT22;275;48.492;9.214;2023-04-29T16:09:30;16.60;37.60
578;DHT22;275;48.492;9.214;2023-04-29T16:11:56;16.40;37.90
578;DHT22;275;48.492;9.214;2023-04-29T16:14:23;16.50;37.40
578;DHT22;275;48.492;9.214;2023-04-29T16:16:52;16.80;36.90
578;DHT22;275;48.492;9.214;2023-04-29T16:19:18;17.30;35.80
578;DHT22;275;48.492;9.214;2023-04-29T16:21:45;16.90;36.50
578;DHT22;275;48.492;9.214;2023-04-29T16:24:13;16.60;37.20
578;DHT22;275;48.492;9.214;2023-04-29T16:26:40;16.30;37.80
578;DHT22;275;48.492;9.214;2023-04-29T16:29:07;16.50;37.40
578;DHT22;275;48.492;9.214;2023-04-29T16:31:36;16.50;38.20
578;DHT22;275;48.492;9.214;2023-04-29T16:34:05;16.30;37.40
578;DHT22;275;48.492;9.214;2023-04-29T16:36:31;16.50;37.50
578;DHT22;275;48.492;9.214;2023-04-29T16:38:59;16.40;37.80